createdAt,value
2023-04-17T00:01:45.289Z,7.97
2023-04-17T00:04:15.849Z,7.84
2023-04-17T00:06:54.562Z,7.90
2023-04-17T00:09:34.810Z,7.88
2023-04-17T00:12:08.954Z,7.83
2023-04-17T00:14:39.330Z,7.88
2023-04-17T00:17:13.137Z,7.97
2023-04-17T00:19:44.657Z,7.94
2023-04-17T00:22:21.025Z,7.97
2023-04-17T00:24:54.636Z,7.90
2023-04-17T00:27:24.156Z,7.90
2023-04-17T00:29:54.697Z,7.86
2023-04-17T00:32:25.678Z,7.94
2023-04-17T00:35:10.748Z,7.91
2023-04-17T00:37:44.524Z,7.87
2023-04-17T00:40:15.514Z,7.88
2023-04-17T00:42:46.401Z,7.87
2023-04-17T00:45:27.133Z,7.84
2023-04-17T00:48:01.069Z,7.86
2023-04-17T00:50:30.948Z,7.84
2023-04-17T00:53:15.405Z,7.66
2023-04-17T00:55:44.825Z,7.77
2023-04-17T00:58:19.985Z,7.76
2023-04-17T01:00:58.638Z,7.81
2023-04-17T01:03:34.715Z,7.55
2023-04-17T01:06:11.347Z,7.47
2023-04-17T01:08:46.208Z,7.68
2023-04-17T01:11:18.757Z,7.68
2023-04-17T01:13:52.543Z,7.68
2023-04-17T01:16:30.381Z,7.76
2023-04-17T01:19:14.130Z,7.56
2023-04-17T01:21:44.872Z,7.53
2023-04-17T01:24:16.673Z,7.54
2023-04-17T01:26:47.919Z,7.55
2023-04-17T01:29:18.227Z,7.54
2023-04-17T01:31:46.318Z,7.18
2023-04-17T01:34:32.797Z,7.51
2023-04-17T01:37:08.272Z,7.40
2023-04-17T01:39:40.151Z,7.48
2023-04-17T01:42:13.625Z,7.35
2023-04-17T01:44:41.365Z,7.42
2023-04-17T01:47:11.260Z,7.28
2023-04-17T01:49:56.133Z,7.18
2023-04-17T01:52:26.716Z,7.30
2023-04-17T01:57:43.843Z,7.11
2023-04-17T02:00:15.163Z,6.92
2023-04-17T02:02:57.046Z,6.75
2023-04-17T02:05:27.917Z,6.93
2023-04-17T02:08:02.229Z,7.04
2023-04-17T02:10:39.995Z,6.95
2023-04-17T02:13:17.040Z,6.92
2023-04-17T02:15:47.687Z,7.04
2023-04-17T02:18:23.429Z,7.00
2023-04-17T02:20:52.771Z,7.14
2023-04-17T02:23:27.307Z,7.06
2023-04-17T02:26:05.139Z,6.99
2023-04-17T02:28:35.776Z,6.89
2023-04-17T02:31:11.042Z,6.98
2023-04-17T02:36:27.167Z,6.97
2023-04-17T02:39:05.879Z,7.06
2023-04-17T02:41:36.008Z,7.14
2023-04-17T02:44:09.008Z,7.04
2023-04-17T02:46:42.684Z,6.99
2023-04-17T02:49:13.686Z,6.96
2023-04-17T02:51:45.003Z,6.93
2023-04-17T02:54:18.710Z,7.07
2023-04-17T02:56:56.708Z,7.00
2023-04-17T02:59:34.027Z,6.96
2023-04-17T03:02:06.843Z,7.04
2023-04-17T03:04:44.161Z,7.14
2023-04-17T03:07:20.782Z,7.11
2023-04-17T03:09:50.336Z,6.91
2023-04-17T03:12:30.815Z,7.08
2023-04-17T03:15:08.626Z,7.10
2023-04-17T03:17:44.586Z,7.08
2023-04-17T03:20:16.809Z,7.00
2023-04-17T03:22:55.707Z,7.14
2023-04-17T03:25:29.892Z,7.12
2023-04-17T03:28:08.863Z,7.07
2023-04-17T03:30:42.860Z,7.01
2023-04-17T03:33:28.211Z,6.93
2023-04-17T03:36:04.458Z,6.89
2023-04-17T03:38:34.161Z,6.85
2023-04-17T03:41:07.418Z,6.86
2023-04-17T03:46:24.931Z,6.90
2023-04-17T03:48:54.353Z,6.81
2023-04-17T03:51:29.890Z,6.76
2023-04-17T03:54:15.793Z,6.87
2023-04-17T03:56:54.072Z,6.79
2023-04-17T03:59:28.070Z,6.81
2023-04-17T04:02:14.341Z,6.85
2023-04-17T04:04:46.814Z,6.83
2023-04-17T04:07:26.435Z,6.63
2023-04-17T04:10:03.468Z,6.59
2023-04-17T04:12:35.888Z,6.58
2023-04-17T04:15:05.193Z,6.69
2023-04-17T04:17:39.534Z,6.61
2023-04-17T04:20:19.025Z,6.72
2023-04-17T04:23:02.781Z,6.70
2023-04-17T04:25:37.352Z,6.69
2023-04-17T04:28:19.679Z,6.62
2023-04-17T04:30:58.222Z,6.79
2023-04-17T04:33:34.049Z,6.60
2023-04-17T04:36:10.315Z,6.88
2023-04-17T04:38:44.017Z,6.93
2023-04-17T04:41:25.205Z,6.95
2023-04-17T04:44:10.126Z,6.96
2023-04-17T04:47:01.632Z,6.84
2023-04-17T04:49:43.892Z,6.85
2023-04-17T04:52:19.223Z,6.90
2023-04-17T04:54:54.886Z,6.92
2023-04-17T05:00:13.543Z,6.89
2023-04-17T05:02:46.424Z,6.82
2023-04-17T05:05:21.537Z,7.10
2023-04-17T05:07:53.553Z,7.12
2023-04-17T05:10:33.855Z,7.17
2023-04-17T05:13:13.555Z,7.22
2023-04-17T05:15:53.692Z,7.25
2023-04-17T05:18:34.503Z,7.37
2023-04-17T05:21:06.157Z,7.45
2023-04-17T05:23:40.116Z,7.41
2023-04-17T05:26:15.896Z,7.47
2023-04-17T05:28:46.300Z,7.54
2023-04-17T05:31:21.956Z,7.66
2023-04-17T05:33:52.072Z,7.71
2023-04-17T05:36:25.678Z,7.67
2023-04-17T05:39:00.512Z,7.72
2023-04-17T05:41:31.184Z,7.82
2023-04-17T05:44:05.442Z,7.79
2023-04-17T05:49:24.708Z,7.90
2023-04-17T05:51:54.610Z,7.93
2023-04-17T05:54:28.632Z,8.01
2023-04-17T05:57:01.245Z,7.96
2023-04-17T05:59:33.758Z,8.01
2023-04-17T06:02:04.220Z,8.22
2023-04-17T06:04:41.348Z,8.28
2023-04-17T06:07:12.310Z,8.38
2023-04-17T06:09:46.710Z,8.51
2023-04-17T06:15:14.356Z,8.80
2023-04-17T06:17:58.561Z,8.69
2023-04-17T06:20:33.501Z,8.88
2023-04-17T06:23:07.175Z,9.00
2023-04-17T06:25:46.643Z,9.02
2023-04-17T06:28:17.249Z,9.21
2023-04-17T06:31:05.914Z,9.24
2023-04-17T06:33:41.521Z,9.15
2023-04-17T06:36:11.533Z,9.40
2023-04-17T06:38:53.401Z,9.55
2023-04-17T06:41:44.880Z,9.61
2023-04-17T06:44:15.957Z,9.72
2023-04-17T06:46:55.708Z,9.65
2023-04-17T06:49:47.638Z,9.64
2023-04-17T06:52:27.728Z,9.62
2023-04-17T06:54:58.771Z,9.57
2023-04-17T06:57:32.358Z,9.88
2023-04-17T07:00:08.211Z,9.99
2023-04-17T07:02:48.649Z,9.95
2023-04-17T07:05:18.402Z,10.25
2023-04-17T07:10:32.636Z,10.26
2023-04-17T07:13:09.668Z,10.56
2023-04-17T07:15:44.268Z,10.45
2023-04-17T07:18:18.805Z,10.61
2023-04-17T07:21:03.456Z,10.74
2023-04-17T07:23:33.433Z,10.92
2023-04-17T07:26:07.130Z,10.92
2023-04-17T07:28:48.336Z,11.07
2023-04-17T07:31:18.739Z,11.03
2023-04-17T07:33:49.653Z,11.28
2023-04-17T07:36:21.724Z,11.32
2023-04-17T07:38:52.164Z,11.33
2023-04-17T07:41:20.135Z,11.47
2023-04-17T07:43:48.997Z,11.74
2023-04-17T07:46:20.014Z,11.80
2023-04-17T07:48:55.786Z,11.87
2023-04-17T07:51:27.711Z,12.04
2023-04-17T07:53:58.136Z,12.31
2023-04-17T07:56:39.191Z,12.30
2023-04-17T07:59:09.801Z,12.22
2023-04-17T08:01:49.589Z,12.33
2023-04-17T08:04:24.729Z,12.29
2023-04-17T08:06:53.714Z,12.27
2023-04-17T08:09:27.084Z,12.41
2023-04-17T08:11:58.433Z,12.68
2023-04-17T08:14:33.363Z,12.86
2023-04-17T08:17:04.672Z,12.98
2023-04-17T08:19:38.915Z,12.90
2023-04-17T08:22:17.353Z,13.09
2023-04-17T08:24:48.748Z,13.15
2023-04-17T08:27:19.986Z,13.12
2023-04-17T08:29:51.667Z,13.04
2023-04-17T08:35:14.838Z,13.48
2023-04-17T08:37:55.357Z,13.55
2023-04-17T08:40:29.244Z,13.63
2023-04-17T08:43:07.464Z,13.53
2023-04-17T08:45:38.565Z,14.00
2023-04-17T08:48:12.150Z,14.10
2023-04-17T08:50:54.448Z,14.07
2023-04-17T08:53:25.046Z,14.46
2023-04-17T08:55:55.563Z,14.73
2023-04-17T08:58:28.818Z,15.25
2023-04-17T09:01:14.326Z,15.31
2023-04-17T09:03:50.454Z,15.25
2023-04-17T09:06:21.843Z,15.40
2023-04-17T09:09:07.037Z,15.30
2023-04-17T09:11:37.408Z,15.45
2023-04-17T09:14:13.293Z,15.22
2023-04-17T09:16:57.558Z,15.07
2023-04-17T09:22:35.256Z,15.07
2023-04-17T09:25:13.197Z,15.46
2023-04-17T09:27:44.730Z,15.77
2023-04-17T09:30:18.368Z,15.86
2023-04-17T09:32:54.413Z,16.03
2023-04-17T09:35:32.042Z,16.44
2023-04-17T09:38:03.648Z,16.50
2023-04-17T09:40:45.674Z,16.32
2023-04-17T09:43:16.881Z,16.82
2023-04-17T09:45:47.994Z,17.22
2023-04-17T09:48:22.118Z,17.24
2023-04-17T09:50:56.608Z,16.90
2023-04-17T09:53:29.302Z,16.99
2023-04-17T09:56:03.976Z,16.84
2023-04-17T09:58:47.048Z,16.54
2023-04-17T10:01:17.870Z,16.44
2023-04-17T10:03:55.197Z,15.90
2023-04-17T10:06:53.812Z,15.94
2023-04-17T10:09:32.588Z,15.82
2023-04-17T10:12:04.223Z,15.63
2023-04-17T10:14:46.867Z,15.57
2023-04-17T10:17:37.407Z,15.48
2023-04-17T10:20:23.936Z,15.33
2023-04-17T10:22:58.936Z,15.43
2023-04-17T10:25:40.993Z,15.55
2023-04-17T10:28:16.263Z,15.59
2023-04-17T10:30:58.573Z,15.65
2023-04-17T10:33:30.976Z,15.97
2023-04-17T10:35:59.015Z,15.89
2023-04-17T10:38:43.957Z,15.94
2023-04-17T10:41:15.921Z,16.08
2023-04-17T10:43:57.461Z,16.03
2023-04-17T10:46:34.448Z,15.70
2023-04-17T10:49:13.710Z,16.22
2023-04-17T10:51:54.262Z,16.38
2023-04-17T10:54:28.482Z,16.47
2023-04-17T10:57:04.341Z,16.58
2023-04-17T10:59:35.067Z,16.66
2023-04-17T11:02:19.651Z,16.48
2023-04-17T11:04:51.782Z,16.26
2023-04-17T11:07:25.514Z,16.21
2023-04-17T11:10:01.883Z,16.07
2023-04-17T11:12:33.009Z,15.89
2023-04-17T11:15:07.265Z,15.61
2023-04-17T11:17:44.129Z,15.82
2023-04-17T11:20:18.359Z,15.53
2023-04-17T11:25:34.923Z,16.18
2023-04-17T11:28:16.129Z,16.00
2023-04-17T11:30:59.736Z,16.16
2023-04-17T11:33:36.905Z,16.29
2023-04-17T11:36:11.382Z,16.58
2023-04-17T11:41:44.668Z,16.60
2023-04-17T11:44:29.752Z,16.73
2023-04-17T11:46:59.596Z,16.79
2023-04-17T11:49:41.437Z,16.89
2023-04-17T11:52:12.371Z,16.78
2023-04-17T11:54:53.393Z,16.85
2023-04-17T11:57:27.720Z,16.86
2023-04-17T12:02:50.323Z,17.32
2023-04-17T12:05:22.371Z,17.12
2023-04-17T12:08:12.053Z,16.97
2023-04-17T12:10:49.276Z,16.87
2023-04-17T12:13:23.516Z,17.08
2023-04-17T12:15:57.709Z,16.78
2023-04-17T12:21:14.371Z,17.07
2023-04-17T12:23:45.426Z,16.82
2023-04-17T12:26:29.714Z,16.87
2023-04-17T12:29:03.261Z,16.51
2023-04-17T12:31:38.925Z,16.35
2023-04-17T12:34:09.617Z,16.41
2023-04-17T12:36:41.168Z,16.41
2023-04-17T12:39:18.905Z,16.25
2023-04-17T12:41:53.031Z,16.21
2023-04-17T12:44:32.324Z,16.32
2023-04-17T12:47:05.679Z,16.37
2023-04-17T12:49:36.011Z,16.40
2023-04-17T12:52:09.063Z,16.32
2023-04-17T12:54:41.499Z,16.43
2023-04-17T13:00:04.100Z,16.45
2023-04-17T13:02:32.413Z,16.64
2023-04-17T13:05:14.789Z,16.79
2023-04-17T13:07:54.008Z,16.59
2023-04-17T13:10:28.092Z,16.71
2023-04-17T13:12:59.127Z,16.83
2023-04-17T13:15:36.136Z,17.78
2023-04-17T13:18:09.014Z,17.11
2023-04-17T13:20:43.765Z,17.06
2023-04-17T13:23:15.398Z,17.41
2023-04-17T13:25:48.860Z,17.34
2023-04-17T13:28:26.678Z,17.00
2023-04-17T13:30:57.669Z,16.91
2023-04-17T13:33:46.084Z,16.62
2023-04-17T13:36:19.906Z,16.44
2023-04-17T13:38:52.709Z,16.50
2023-04-17T13:41:22.289Z,16.34
2023-04-17T13:43:53.901Z,16.30
2023-04-17T13:46:30.513Z,16.30
2023-04-17T13:49:09.814Z,16.13
2023-04-17T13:51:46.117Z,15.94
2023-04-17T13:54:17.510Z,15.94
2023-04-17T13:56:46.563Z,15.77
2023-04-17T13:59:21.993Z,15.82
2023-04-17T14:02:06.096Z,15.70
2023-04-17T14:04:36.348Z,15.60
2023-04-17T14:07:14.274Z,15.58
2023-04-17T14:09:45.297Z,15.64
2023-04-17T14:12:22.430Z,15.60
2023-04-17T14:14:58.148Z,15.44
2023-04-17T14:17:29.692Z,15.36
2023-04-17T14:20:10.482Z,15.37
2023-04-17T14:22:41.451Z,15.39
2023-04-17T14:25:15.210Z,15.48
2023-04-17T14:27:46.691Z,15.42
2023-04-17T14:30:26.716Z,15.53
2023-04-17T14:32:57.454Z,15.26
2023-04-17T14:35:28.846Z,15.62
2023-04-17T14:37:59.378Z,15.76
2023-04-17T14:40:31.060Z,15.65
2023-04-17T14:45:47.477Z,15.68
2023-04-17T14:48:18.222Z,15.63
2023-04-17T14:50:52.091Z,15.80
2023-04-17T14:53:28.603Z,15.83
2023-04-17T14:56:03.505Z,15.93
2023-04-17T14:58:33.326Z,15.97
2023-04-17T15:01:07.314Z,15.76
2023-04-17T15:03:47.767Z,15.82
2023-04-17T15:06:22.061Z,15.87
2023-04-17T15:08:53.169Z,15.94
2023-04-17T15:14:18.184Z,15.92
2023-04-17T15:16:53.168Z,15.95
2023-04-17T15:19:24.279Z,15.98
2023-04-17T15:21:57.988Z,15.93
2023-04-17T15:24:29.374Z,16.04
2023-04-17T15:26:58.953Z,15.81
2023-04-17T15:29:32.488Z,15.73
2023-04-17T15:32:05.285Z,15.73
2023-04-17T15:34:45.404Z,15.58
2023-04-17T15:37:16.328Z,15.58
2023-04-17T15:39:53.770Z,15.15
2023-04-17T15:42:29.474Z,15.37
2023-04-17T15:45:03.664Z,15.49
2023-04-17T15:47:34.605Z,15.44
2023-04-17T15:52:49.078Z,15.55
2023-04-17T15:55:19.352Z,15.44
2023-04-17T15:57:54.648Z,15.65
2023-04-17T16:03:20.341Z,15.94
2023-04-17T16:06:03.145Z,15.87
2023-04-17T16:08:40.587Z,15.89
2023-04-17T16:11:15.529Z,15.79
2023-04-17T16:13:44.551Z,15.73
2023-04-17T16:16:21.466Z,15.74
2023-04-17T16:19:05.352Z,15.57
2023-04-17T16:21:36.155Z,15.47
2023-04-17T16:24:06.840Z,15.26
2023-04-17T16:26:34.923Z,15.12
2023-04-17T16:29:08.241Z,15.05
2023-04-17T16:31:39.347Z,15.03
2023-04-17T16:34:10.770Z,14.88
2023-04-17T16:36:45.369Z,14.73
2023-04-17T16:39:16.773Z,14.71
2023-04-17T16:41:47.511Z,14.57
2023-04-17T16:44:16.507Z,14.50
2023-04-17T16:47:05.507Z,14.42
2023-04-17T16:49:38.430Z,14.26
2023-04-17T16:52:12.633Z,14.08
2023-04-17T16:54:46.918Z,14.08
2023-04-17T16:57:17.359Z,14.05
2023-04-17T16:59:48.117Z,14.04
2023-04-17T17:02:19.432Z,14.08
2023-04-17T17:04:50.777Z,14.10
2023-04-17T17:07:32.777Z,13.91
2023-04-17T17:10:03.906Z,13.81
2023-04-17T17:12:33.357Z,13.90
2023-04-17T17:15:10.676Z,13.74
2023-04-17T17:17:41.632Z,13.67
2023-04-17T17:20:15.762Z,13.85
2023-04-17T17:22:46.304Z,13.78
2023-04-17T17:25:27.109Z,13.59
2023-04-17T17:27:57.922Z,13.54
2023-04-17T17:30:38.202Z,13.38
2023-04-17T17:33:06.216Z,13.26
2023-04-17T17:35:37.906Z,13.34
2023-04-17T17:38:12.201Z,13.23
2023-04-17T17:40:41.137Z,12.98
2023-04-17T17:43:13.642Z,12.86
2023-04-17T17:45:50.399Z,12.53
2023-04-17T17:48:21.498Z,12.85
2023-04-17T17:50:56.472Z,12.90
2023-04-17T17:53:27.542Z,13.06
2023-04-17T17:56:06.422Z,13.34
2023-04-17T17:58:51.410Z,13.24
2023-04-17T18:01:25.608Z,13.07
2023-04-17T18:03:56.377Z,13.25
2023-04-17T18:06:30.438Z,13.14
2023-04-17T18:09:01.608Z,13.15
2023-04-17T18:11:39.381Z,13.02
2023-04-17T18:14:19.010Z,12.82
2023-04-17T18:16:49.400Z,12.56
2023-04-17T18:19:28.679Z,12.52
2023-04-17T18:21:59.791Z,12.56
2023-04-17T18:24:32.784Z,12.70
2023-04-17T18:27:03.271Z,12.74
2023-04-17T18:29:37.287Z,12.62
2023-04-17T18:32:10.669Z,12.42
2023-04-17T18:34:41.101Z,12.15
2023-04-17T18:37:11.028Z,11.92
2023-04-17T18:39:42.677Z,11.90
2023-04-17T18:42:15.605Z,11.99
2023-04-17T18:44:58.724Z,11.88
2023-04-17T18:47:27.248Z,11.60
2023-04-17T18:50:00.825Z,11.50
2023-04-17T18:52:31.570Z,11.85
2023-04-17T18:55:07.584Z,12.04
2023-04-17T18:57:44.667Z,11.69
2023-04-17T19:00:16.737Z,11.71
2023-04-17T19:02:47.806Z,11.82
2023-04-17T19:05:17.142Z,11.60
2023-04-17T19:07:45.156Z,11.49
2023-04-17T19:10:17.780Z,11.44
2023-04-17T19:12:49.207Z,11.36
2023-04-17T19:15:23.938Z,11.36
2023-04-17T19:18:03.197Z,11.20
2023-04-17T19:20:35.626Z,11.52
2023-04-17T19:23:07.791Z,11.47
2023-04-17T19:25:41.566Z,11.18
2023-04-17T19:28:18.783Z,11.24
2023-04-17T19:33:44.465Z,10.93
2023-04-17T19:36:19.950Z,10.88
2023-04-17T19:41:32.478Z,10.74
2023-04-17T19:44:02.351Z,10.85
2023-04-17T19:46:33.329Z,10.70
2023-04-17T19:49:05.043Z,10.89
2023-04-17T19:51:37.959Z,10.78
2023-04-17T19:54:09.932Z,10.81
2023-04-17T19:56:43.762Z,10.56
2023-04-17T19:59:21.180Z,10.39
2023-04-17T20:01:54.430Z,10.73
2023-04-17T20:04:29.026Z,10.63
2023-04-17T20:07:02.003Z,10.67
2023-04-17T20:09:32.812Z,10.68
2023-04-17T20:12:03.537Z,10.65
2023-04-17T20:17:23.292Z,10.17
2023-04-17T20:19:54.233Z,10.31
2023-04-17T20:22:25.371Z,10.53
2023-04-17T20:24:58.612Z,10.28
2023-04-17T20:27:32.951Z,10.83
2023-04-17T20:30:07.825Z,10.76
2023-04-17T20:32:51.750Z,11.03
2023-04-17T20:35:24.921Z,11.01
2023-04-17T20:37:53.209Z,11.12
2023-04-17T20:40:23.598Z,11.06
2023-04-17T20:42:57.374Z,11.06
2023-04-17T20:45:29.286Z,11.22
2023-04-17T20:48:07.143Z,11.45
2023-04-17T20:50:41.112Z,11.32
2023-04-17T20:53:10.269Z,11.14
2023-04-17T20:58:33.167Z,11.08
2023-04-17T21:01:16.553Z,11.00
2023-04-17T21:03:47.062Z,10.72
2023-04-17T21:06:21.931Z,11.00
2023-04-17T21:08:49.841Z,10.88
2023-04-17T21:11:21.425Z,10.64
2023-04-17T21:13:49.578Z,11.07
2023-04-17T21:16:20.560Z,10.72
2023-04-17T21:18:49.634Z,10.56
2023-04-17T21:21:25.100Z,10.95
2023-04-17T21:24:10.355Z,10.89
2023-04-17T21:26:41.772Z,11.07
2023-04-17T21:29:13.557Z,10.94
2023-04-17T21:31:44.131Z,10.59
2023-04-17T21:34:13.377Z,10.45
2023-04-17T21:36:45.422Z,10.40
2023-04-17T21:39:15.624Z,9.98
2023-04-17T21:41:44.527Z,9.84
2023-04-17T21:44:18.741Z,10.30
2023-04-17T21:46:52.513Z,10.23
2023-04-17T21:49:20.969Z,10.15
2023-04-17T21:51:54.510Z,10.15
2023-04-17T21:54:25.384Z,9.97
2023-04-17T21:56:54.866Z,10.08
2023-04-17T21:59:32.188Z,9.96
2023-04-17T22:02:03.266Z,9.78
2023-04-17T22:04:31.045Z,9.68
2023-04-17T22:07:08.719Z,9.64
2023-04-17T22:09:42.604Z,9.44
2023-04-17T22:12:21.625Z,9.57
2023-04-17T22:14:52.792Z,9.49
2023-04-17T22:17:23.527Z,9.67
2023-04-17T22:19:56.875Z,9.35
2023-04-17T22:22:33.151Z,9.14
2023-04-17T22:25:03.763Z,9.13
2023-04-17T22:27:37.382Z,9.21
2023-04-17T22:30:06.988Z,8.80
2023-04-17T22:32:41.425Z,9.13
2023-04-17T22:35:21.848Z,8.95
2023-04-17T22:37:50.928Z,9.06
2023-04-17T22:40:22.716Z,8.92
2023-04-17T22:42:56.308Z,8.76
2023-04-17T22:45:34.766Z,8.50
2023-04-17T22:48:08.882Z,8.74
2023-04-17T22:50:48.428Z,8.32
2023-04-17T22:53:28.120Z,8.28
2023-04-17T22:56:08.360Z,8.46
2023-04-17T22:58:44.566Z,8.55
2023-04-17T23:01:22.024Z,8.36
2023-04-17T23:03:52.382Z,8.31
2023-04-17T23:06:27.027Z,7.87
2023-04-17T23:08:59.445Z,8.01
2023-04-17T23:11:35.747Z,7.90
2023-04-17T23:14:05.756Z,7.80
2023-04-17T23:16:39.995Z,7.61
2023-04-17T23:19:11.698Z,7.76
2023-04-17T23:21:46.036Z,7.74
2023-04-17T23:24:22.756Z,7.52
2023-04-17T23:26:57.446Z,7.76
2023-04-17T23:29:29.238Z,7.68
2023-04-17T23:32:01.881Z,7.58
2023-04-17T23:34:35.917Z,7.32
2023-04-17T23:37:06.970Z,7.49
2023-04-17T23:39:37.847Z,7.57
2023-04-17T23:42:12.337Z,7.51
2023-04-17T23:44:45.701Z,7.65
2023-04-17T23:47:22.786Z,7.58
2023-04-17T23:49:51.815Z,7.56
2023-04-17T23:52:22.311Z,7.32
2023-04-17T23:54:52.471Z,7.29
2023-04-17T23:57:21.269Z,7.66
2023-04-17T23:59:52.762Z,7.24
